Terminal Aerodrome Forecast
Issued by NWS

Home | Current Version | Previous Version | Graphics & Text | Print | Product List | Glossary On
Versions: 1 2 3 4 5 6 7 8 9 10 11 12 13
000
FTUS45 KGGW 230520
TAFSDY
TAF
KSDY 230520Z 2306/2406 35004KT P6SM SKC
     FM231200 14004KT P6SM FEW110
     FM240000 15008KT P6SM FEW160
     FM240300 11006KT P6SM FEW190=

USA.gov is the U.S. government's official web portal to all federal, state and local government web resources and services.